Home > Products > Valid Products > TAF

000
FTUS44 KOHX 232300
TAFCKV
TAF
KCKV 232320Z 2400/2424 15006KT P6SM SCT120
     FM241400 17012G25KT P6SM SCT050 BKN250=



000
FTUS44 KOHX 232300
TAFBNA
TAF
KBNA 232320Z 2400/2424 16006KT P6SM SCT120
     FM241400 17012G22KT P6SM SCT050 BKN250=



000
FTUS44 KOHX 232300
TAFCSV
TAF
KCSV 232320Z 2400/2424 15003KT P6SM SCT110
     FM241400 16008G18KT P6SM SCT050 BKN250=



000
FTUS44 KOHX 232300
TAFCSV
TAF
KCSV 232320Z 2400/2424 15003KT P6SM SCT110
     FM241400 16008G18KT P6SM SCT050 BKN250=



000
FTUS44 KOHX 232300
TAFCKV
TAF
KCKV 232320Z 2400/2424 15006KT P6SM SCT120
     FM241400 17012G25KT P6SM SCT050 BKN250=



000
FTUS44 KOHX 232300
TAFBNA
TAF
KBNA 232320Z 2400/2424 16006KT P6SM SCT120
     FM241400 17012G22KT P6SM SCT050 BKN250=



000
FTUS44 KOHX 231700
TAFCSV
TAF
KCSV 231725Z 2318/2418 17008KT P6SM SCT120
     FM241300 16010G18KT P6SM SCT120 BKN250=



000
FTUS44 KOHX 231700
TAFCSV
TAF
KCSV 231725Z 2318/2418 17008KT P6SM SCT120
     FM241300 16010G18KT P6SM SCT120 BKN250=



000
FTUS44 KOHX 231700
TAFBNA
TAF
KBNA 231725Z 2318/2418 16006KT P6SM SCT120
     FM241300 17012G22KT P6SM SCT120 BKN250=



000
FTUS44 KOHX 231700
TAFCKV
TAF
KCKV 231725Z 2318/2418 15006KT P6SM SCT120
     FM241300 17012G25KT P6SM SCT120 BKN250=



000
FTUS44 KOHX 231700
TAFCKV
TAF
KCKV 231725Z 2318/2418 15006KT P6SM SCT120
     FM241300 17012G25KT P6SM SCT120 BKN250=



000
FTUS44 KOHX 231700
TAFBNA
TAF
KBNA 231725Z 2318/2418 16006KT P6SM SCT120
     FM241300 17012G22KT P6SM SCT120 BKN250=



000
FTUS44 KOHX 231600 AAA
TAFBNA
TAF AMD
KBNA 231609Z 2316/2412 14003KT P6SM SCT110 BKN180 BKN250=



000
FTUS44 KOHX 231600 AAA
TAFCKV
TAF AMD
KCKV 231609Z 2316/2412 VRB06KT P6SM VCSH OVC100
     FM231800 13006KT P6SM FEW050 SCT100=



000
FTUS44 KOHX 231100
TAFCSV
TAF
KCSV 231120Z 2312/2412 15005KT P6SM FEW050 BKN120=



000
FTUS44 KOHX 231100
TAFCKV
TAF
KCKV 231120Z 2312/2412 11005KT P6SM VCSH BKN100
     FM231800 13006KT P6SM FEW050 SCT100=



000
FTUS44 KOHX 231100
TAFCKV
TAF
KCKV 231120Z 2312/2412 11005KT P6SM VCSH BKN100
     FM231800 13006KT P6SM FEW050 SCT100=



000
FTUS44 KOHX 231100
TAFBNA
TAF
KBNA 231120Z 2312/2412 15006KT P6SM FEW050 BKN110=



000
FTUS44 KOHX 231100
TAFCSV
TAF
KCSV 231120Z 2312/2412 15005KT P6SM FEW050 BKN120=



000
FTUS44 KOHX 231100
TAFBNA
TAF
KBNA 231120Z 2312/2412 15006KT P6SM FEW050 BKN110=



000
FTUS44 KOHX 230500
TAFCSV
TAF
KCSV 230520Z 2306/2406 00000KT P6SM SCT250
     FM231400 16005KT P6SM SCT150=



000
FTUS44 KOHX 230500
TAFBNA
TAF
KBNA 230520Z 2306/2406 06003KT P6SM SCT250
     FM231400 14006KT P6SM SCT120=



000
FTUS44 KOHX 230500
TAFCKV
TAF
KCKV 230520Z 2306/2406 09003KT P6SM SCT250
     FM231400 14006KT P6SM SCT120=



000
FTUS44 KOHX 222300
TAFCKV
TAF
KCKV 222325Z 2300/2324 09003KT P6SM BKN250
     FM231400 14005KT P6SM SCT100=



000
FTUS44 KOHX 222300
TAFCSV
TAF
KCSV 222325Z 2300/2324 00000KT P6SM SCT250
     FM231400 16005KT P6SM SCT150=



000
FTUS44 KOHX 222300
TAFCSV
TAF
KCSV 222325Z 2300/2324 00000KT P6SM SCT250
     FM231400 16005KT P6SM SCT150=



000
FTUS44 KOHX 222300
TAFBNA
TAF
KBNA 222325Z 2300/2324 06003KT P6SM BKN250
     FM231400 14006KT P6SM SCT100=



000
FTUS44 KOHX 222300
TAFCKV
TAF
KCKV 222325Z 2300/2324 09003KT P6SM BKN250
     FM231400 14005KT P6SM SCT100=



000
FTUS44 KOHX 222300
TAFBNA
TAF
KBNA 222325Z 2300/2324 06003KT P6SM BKN250
     FM231400 14006KT P6SM SCT100=



000
FTUS44 KOHX 221700
TAFCKV
TAF
KCKV 221724Z 2218/2318 VRB03KT P6SM SCT250
     FM231300 14006KT P6SM SCT250=



000
FTUS44 KOHX 221700
TAFBNA
TAF
KBNA 221724Z 2218/2318 06006KT P6SM SCT250
     FM231300 14006KT P6SM SCT250=



000
FTUS44 KOHX 221700
TAFCSV
TAF
KCSV 221724Z 2218/2318 05009KT P6SM SCT250
     FM231300 16006KT P6SM SCT250=



000
FTUS44 KOHX 221700
TAFBNA
TAF
KBNA 221724Z 2218/2318 06006KT P6SM SCT250
     FM231300 14006KT P6SM SCT250=



000
FTUS44 KOHX 221700
TAFCSV
TAF
KCSV 221724Z 2218/2318 05009KT P6SM SCT250
     FM231300 16006KT P6SM SCT250=



000
FTUS44 KOHX 221700
TAFCKV
TAF
KCKV 221724Z 2218/2318 VRB03KT P6SM SCT250
     FM231300 14006KT P6SM SCT250=



000
FTUS44 KOHX 221200 AAA
TAFCSV
TAF AMD
KCSV 221207Z 2212/2312 03005KT 5SM BR FEW004
      TEMPO 2212/2213 2SM BR VV002
     FM221300 03006KT P6SM SKC=



000
FTUS44 KOHX 221200 AAA
TAFCSV
TAF AMD
KCSV 221207Z 2212/2312 03005KT 5SM BR FEW004
      TEMPO 2212/2213 2SM BR VV002
     FM221300 03006KT P6SM SKC=



000
FTUS44 KOHX 221100
TAFCKV
TAF
KCKV 221120Z 2212/2312 05005KT P6SM SKC=



000
FTUS44 KOHX 221100
TAFCKV
TAF
KCKV 221120Z 2212/2312 05005KT P6SM SKC=



000
FTUS44 KOHX 221100
TAFCSV
TAF
KCSV 221120Z 2212/2312 06002KT 3SM BR BKN002
      TEMPO 2212/2213 1SM BR VV002
     FM221300 03006KT P6SM SKC=



000
FTUS44 KOHX 221100
TAFBNA
TAF
KBNA 221120Z 2212/2312 04006KT P6SM SKC=



000
FTUS44 KOHX 221100
TAFCSV
TAF
KCSV 221120Z 2212/2312 06002KT 3SM BR BKN002
      TEMPO 2212/2213 1SM BR VV002
     FM221300 03006KT P6SM SKC=



000
FTUS44 KOHX 221100
TAFBNA
TAF
KBNA 221120Z 2212/2312 04006KT P6SM SKC=



000
FTUS44 KOHX 221000 AAB
TAFCSV
TAF AMD
KCSV 221007Z 2210/2306 04003KT 5SM BR SCT004
     FM221100 03002KT 2SM BR SKC
     FM221500 02005KT P6SM SKC=



000
FTUS44 KOHX 220900 AAA
TAFBNA
TAF AMD
KBNA 220925Z 2209/2306 35003KT P6SM SKC
      TEMPO 2211/2213 4SM BR
     FM221400 05004KT P6SM SKC=



000
FTUS44 KOHX 220900 AAA
TAFBNA
TAF AMD
KBNA 220925Z 2209/2306 35003KT P6SM SKC
      TEMPO 2211/2213 4SM BR
     FM221400 05004KT P6SM SKC=



000
FTUS44 KOHX 220900 AAB
TAFCKV
TAF AMD
KCKV 220925Z 2209/2306 00000KT P6SM SKC
      TEMPO 2211/2213 2SM BR
     FM221500 05003KT P6SM SKC=



000
FTUS44 KOHX 220900 AAB
TAFCKV
TAF AMD
KCKV 220925Z 2209/2306 00000KT P6SM SKC
      TEMPO 2211/2213 2SM BR
     FM221500 05003KT P6SM SKC=



000
FTUS44 KOHX 220700 AAA
TAFCSV
TAF AMD
KCSV 220725Z 2207/2306 35005KT 5SM BR SCT004
     FM221000 36003KT 2SM BR SKC
     FM221500 02005KT P6SM SKC=



000
FTUS44 KOHX 220700 AAA
TAFCKV
TAF AMD
KCKV 220723Z 2207/2306 32003KT P6SM SKC
     FM220800 32002KT 4SM BR SKC
     FM221000 31002KT 2SM BR SKC
     FM221500 05003KT P6SM SKC=



000
FTUS44 KOHX 220500
TAFCKV
TAF
KCKV 220520Z 2206/2306 35004KT P6SM SKC
     FM220700 32003KT 4SM BR SKC
     FM220900 31003KT 2SM BR SKC
     FM221500 05003KT P6SM SKC=



000
FTUS44 KOHX 220500
TAFCKV
TAF
KCKV 220520Z 2206/2306 35004KT P6SM SKC
     FM220700 32003KT 4SM BR SKC
     FM220900 31003KT 2SM BR SKC
     FM221500 05003KT P6SM SKC=



000
FTUS44 KOHX 220500
TAFBNA
TAF
KBNA 220520Z 2206/2306 35004KT P6SM SKC
     FM220900 35003KT 4SM BR SKC
     FM221400 05004KT P6SM SKC=



000
FTUS44 KOHX 220500
TAFCSV
TAF
KCSV 220520Z 2206/2306 34003KT P6SM SKC
     FM220700 36003KT 4SM BR SKC
     FM220800 00000KT 2SM BR SKC
     FM221500 02005KT P6SM SKC=



000
FTUS44 KOHX 220500
TAFBNA
TAF
KBNA 220520Z 2206/2306 35004KT P6SM SKC
     FM220900 35003KT 4SM BR SKC
     FM221400 05004KT P6SM SKC=



000
FTUS44 KOHX 220500
TAFCSV
TAF
KCSV 220520Z 2206/2306 34003KT P6SM SKC
     FM220700 36003KT 4SM BR SKC
     FM220800 00000KT 2SM BR SKC
     FM221500 02005KT P6SM SKC=



000
FTUS44 KOHX 220500 AAB
TAFCKV
TAF AMD
KCKV 220500Z 2205/2224 32003KT P6SM SKC
     FM220800 31003KT 2SM BR SKC
     FM221500 05003KT P6SM SKC=



000
FTUS44 KOHX 220500 AAB
TAFCKV
TAF AMD
KCKV 220500Z 2205/2224 32003KT P6SM SKC
     FM220800 31003KT 2SM BR SKC
     FM221500 05003KT P6SM SKC=



000
FTUS44 KOHX 220400 AAE
TAFCSV
TAF AMD
KCSV 220405Z 2204/2224 34003KT P6SM SCT040
     FM220600 36004KT 4SM BR SKC
     FM220800 00000KT 2SM BR SKC
     FM221500 02005KT P6SM SKC=



000
FTUS44 KOHX 220400 AAE
TAFCSV
TAF AMD
KCSV 220405Z 2204/2224 34003KT P6SM SCT040
     FM220600 36004KT 4SM BR SKC
     FM220800 00000KT 2SM BR SKC
     FM221500 02005KT P6SM SKC=



000
FTUS44 KOHX 220300 AAD
TAFCSV
TAF AMD
KCSV 220324Z 2203/2224 34005KT P6SM SCT020 OVC030
     FM220600 36004KT 4SM BR SKC
     FM220800 00000KT 2SM BR SKC
     FM221500 02005KT P6SM SKC=



000
FTUS44 KOHX 220100 AAA
TAFCKV
TAF AMD
KCKV 220158Z 2202/2224 32003KT P6SM SKC
     FM220500 35004KT 4SM BR SKC
     FM220800 31003KT 2SM BR SKC
     FM221500 05003KT P6SM SKC=



000
FTUS44 KOHX 220100 AAC
TAFCSV
TAF AMD
KCSV 220138Z 2202/2224 34006KT P6SM OVC030
     FM220300 33008KT P6SM BKN012
     FM220600 36004KT 4SM BR SKC
     FM220800 00000KT 2SM BR SKC
     FM221500 02005KT P6SM SKC=



000
FTUS44 KOHX 220000 AAB
TAFCSV
TAF AMD
KCSV 220050Z 2201/2224 32008KT P6SM BKN020 OVC025
     FM220300 33008KT P6SM BKN012
     FM220600 36004KT 4SM BR SKC
     FM220800 00000KT 2SM BR SKC
     FM221500 02005KT P6SM SKC=



000
FTUS44 KOHX 220000 AAB
TAFCSV
TAF AMD
KCSV 220050Z 2201/2224 32008KT P6SM BKN020 OVC025
     FM220300 33008KT P6SM BKN012
     FM220600 36004KT 4SM BR SKC
     FM220800 00000KT 2SM BR SKC
     FM221500 02005KT P6SM SKC=



000
FTUS44 KOHX 220000 AAA
TAFCSV
TAF AMD
KCSV 220026Z 2200/2224 32006KT 5SM BR BKN013 OVC018
     FM220300 33008KT P6SM BKN012
     FM220600 36004KT 4SM BR SKC
     FM220800 00000KT 2SM BR SKC
     FM221500 02005KT P6SM SKC=



000
FTUS44 KOHX 220000 AAA
TAFCSV
TAF AMD
KCSV 220026Z 2200/2224 32006KT 5SM BR BKN013 OVC018
     FM220300 33008KT P6SM BKN012
     FM220600 36004KT 4SM BR SKC
     FM220800 00000KT 2SM BR SKC
     FM221500 02005KT P6SM SKC=



000
FTUS44 KOHX 220000 AAA
TAFBNA
TAF AMD
KBNA 220005Z 2200/2224 33008KT P6SM BKN050 OVC120
     FM220400 35005KT P6SM SKC
     FM220600 35004KT 5SM BR SKC
     FM221400 05004KT P6SM SKC=



000
FTUS44 KOHX 220000 AAA
TAFBNA
TAF AMD
KBNA 220005Z 2200/2224 33008KT P6SM BKN050 OVC120
     FM220400 35005KT P6SM SKC
     FM220600 35004KT 5SM BR SKC
     FM221400 05004KT P6SM SKC=



000
FTUS44 KOHX 212300 RRA
TAFCKV
TAF
KCKV 212340Z 2200/2224 35012KT P6SM OVC040
     FM220200 34007KT P6SM SKC
     FM220500 35004KT 4SM BR SKC
     FM220800 31003KT 2SM BR SKC
     FM221500 05003KT P6SM SKC=



000
FTUS44 KOHX 212300 RRA
TAFCSV
TAF
KCSV 212340Z 2200/2224 31008KT P6SM SCT012 OVC030
     FM220300 33008KT P6SM BKN012
     FM220600 36004KT 4SM BR SKC
     FM220800 00000KT 2SM BR SKC
     FM221500 02005KT P6SM SKC=



000
FTUS44 KOHX 212300 RRA
TAFBNA
TAF
KBNA 212340Z 2200/2224 33006KT P6SM BKN030 OVC040
     FM220400 35005KT P6SM SKC
     FM220600 35004KT 5SM BR SKC
     FM221400 05004KT P6SM SKC=



000
FTUS44 KOHX 212100 AAA
TAFCSV
TAF AMD
KCSV 212122Z 2121/2218 29006KT P6SM SCT009 BKN015 OVC030
     FM212300 32009KT P6SM OVC025
     FM220300 31011KT P6SM BKN040
     FM220800 00000KT 4SM BR SKC
     FM221200 05004KT P6SM SKC=



000
FTUS44 KOHX 212000 AAA
TAFBNA
TAF AMD
KBNA 212059Z 2121/2218 35007G15KT P6SM SCT024 OVC040
     FM220300 35005KT P6SM SCT050
     FM221200 01004KT P6SM SKC=



000
FTUS44 KOHX 211951 AAA
TAFCSV
TAF AMD
KCSV 211951Z 2120/2218 33009KT P6SM BKN007 OVC015
     FM212200 32009KT P6SM OVC025
     FM220300 31011KT P6SM BKN040
     FM220800 00000KT 4SM BR SKC
     FM221200 05004KT P6SM SKC=



000
FTUS44 KOHX 211951 AAA
TAFBNA
TAF AMD
KBNA 211951Z 2120/2218 34008KT P6SM BKN015 OVC035
     FM212200 34010KT P6SM BKN035 OVC050
     FM220300 35005KT P6SM SCT050
     FM221200 01004KT P6SM SKC=



000
FTUS44 KOHX 211927 AAA
TAFCKV
TAF AMD
KCKV 211927Z 2119/2218 33009KT P6SM SCT025 BKN040
     FM220300 35004KT P6SM FEW040
     FM220900 00000KT 4SM BR SKC
     FM221500 36003KT P6SM SKC=



000
FTUS44 KOHX 211927 AAA
TAFCKV
TAF AMD
KCKV 211927Z 2119/2218 33009KT P6SM SCT025 BKN040
     FM220300 35004KT P6SM FEW040
     FM220900 00000KT 4SM BR SKC
     FM221500 36003KT P6SM SKC=



000
FTUS44 KOHX 211725
TAFBNA
TAF
KBNA 211725Z 2118/2218 34008KT P6SM SCT015 BKN025 OVC035
     FM212200 34010KT P6SM BKN035 OVC050
     FM220300 35005KT P6SM SCT050
     FM221200 01004KT P6SM SKC=



000
FTUS44 KOHX 211725
TAFCSV
TAF
KCSV 211725Z 2118/2218 33009KT P6SM BKN010 OVC015
     FM212200 32009KT P6SM OVC025
     FM220300 31011KT P6SM BKN040
     FM220800 00000KT 4SM BR SKC
     FM221200 05004KT P6SM SKC=



000
FTUS44 KOHX 211725
TAFCKV
TAF
KCKV 211725Z 2118/2218 34008KT P6SM BKN015 OVC020
     FM212200 33009KT P6SM BKN030
     FM220300 35004KT P6SM FEW040
     FM220900 00000KT 4SM BR SKC
     FM221500 36003KT P6SM SKC=



000
FTUS44 KOHX 211710 AAA
TAFCKV
TAF AMD
KCKV 211710Z 2117/2212 34008KT P6SM BKN015 OVC020
     FM212000 33009KT P6SM BKN050
     FM220200 35004KT P6SM SKC=



000
FTUS44 KOHX 211709 AAA
TAFCSV
TAF AMD
KCSV 211709Z 2117/2212 33009KT P6SM BKN009 OVC015
     FM212000 32009KT P6SM OVC015
     FM212200 31011KT P6SM BKN040=



000
FTUS44 KOHX 211708 AAA
TAFBNA
TAF AMD
KBNA 211708Z 2117/2212 34008KT P6SM SCT015 BKN025 OVC035
     FM212100 34010KT P6SM BKN050
     FM220300 35005KT P6SM SCT100=



000
FTUS44 KOHX 211100
TAFBNA
TAF
KBNA 211121Z 2112/2212 34009KT 6SM BR OVC011
      TEMPO 2112/2114 OVC009
     FM211800 34008KT P6SM BKN025
     FM212100 34010KT P6SM BKN050
     FM220300 35005KT P6SM SCT100=



000
FTUS44 KOHX 211100
TAFCSV
TAF
KCSV 211121Z 2112/2212 31011G15KT 4SM BR OVC005
      TEMPO 2112/2115 2SM BR OVC003
     FM211500 33009KT P6SM OVC008
     FM211700 32009KT P6SM OVC015
     FM212000 31011KT P6SM BKN040=



000
FTUS44 KOHX 211100
TAFCKV
TAF
KCKV 211121Z 2112/2212 33011G16KT 6SM BR OVC010
      TEMPO 2112/2114 5SM BR OVC008
     FM211700 34008KT P6SM BKN025
     FM212000 33009KT P6SM BKN050
     FM220200 35004KT P6SM SKC=



000
FTUS44 KOHX 211100
TAFCSV
TAF
KCSV 211121Z 2112/2212 31011G15KT 4SM BR OVC005
      TEMPO 2112/2115 2SM BR OVC003
     FM211500 33009KT P6SM OVC008
     FM211700 32009KT P6SM OVC015
     FM212000 31011KT P6SM BKN040=



000
FTUS44 KOHX 211100
TAFBNA
TAF
KBNA 211121Z 2112/2212 34009KT 6SM BR OVC011
      TEMPO 2112/2114 OVC009
     FM211800 34008KT P6SM BKN025
     FM212100 34010KT P6SM BKN050
     FM220300 35005KT P6SM SCT100=



000
FTUS44 KOHX 211100
TAFCKV
TAF
KCKV 211121Z 2112/2212 33011G16KT 6SM BR OVC010
      TEMPO 2112/2114 5SM BR OVC008
     FM211700 34008KT P6SM BKN025
     FM212000 33009KT P6SM BKN050
     FM220200 35004KT P6SM SKC=



000
FTUS44 KOHX 211000 AAB
TAFCKV
TAF AMD
KCKV 211010Z 2110/2206 33009KT 6SM BR OVC010
      TEMPO 2110/2113 5SM BR OVC007
     FM211300 35007KT P6SM OVC010
     FM211700 34008KT P6SM BKN015
     FM212100 33009KT P6SM BKN050
     FM220200 35004KT P6SM SKC=



000
FTUS44 KOHX 210800 AAA
TAFCSV
TAF AMD
KCSV 210800Z 2108/2206 29007KT 4SM BR OVC004
     FM211100 32006KT 4SM BR OVC004
     FM211500 33008KT P6SM BKN015
     FM212300 31008KT P6SM BKN050
     FM220200 33007KT P6SM BKN200=



000
FTUS44 KOHX 210700 AAA
TAFCKV
TAF AMD
KCKV 210712Z 2107/2206 34005KT 3SM BR OVC005
     FM211000 33009KT 2SM BR OVC003
     FM211500 35007KT P6SM OVC007
     FM211700 34008KT P6SM BKN015
     FM212100 33009KT P6SM BKN050
     FM220200 35004KT P6SM SKC=



000
FTUS44 KOHX 210700 AAA
TAFBNA
TAF AMD
KBNA 210711Z 2107/2206 35005KT P6SM OVC007
     FM211100 34009KT P6SM OVC005
     FM211500 35007KT P6SM BKN015
     FM211800 34006KT P6SM BKN025
     FM212200 34010KT P6SM BKN050
     FM220300 35005KT P6SM SCT100=



000
FTUS44 KOHX 210700 AAA
TAFBNA
TAF AMD
KBNA 210711Z 2107/2206 35005KT P6SM OVC007
     FM211100 34009KT P6SM OVC005
     FM211500 35007KT P6SM BKN015
     FM211800 34006KT P6SM BKN025
     FM212200 34010KT P6SM BKN050
     FM220300 35005KT P6SM SCT100=



000
FTUS44 KOHX 210500
TAFCSV
TAF
KCSV 210520Z 2106/2206 27003KT 5SM -SHRA SCT040 BKN060 OVC090
     FM210700 29003KT 4SM BR OVC015
     FM211100 32006KT 4SM BR OVC007
     FM211500 33008KT P6SM BKN015
     FM212300 31008KT P6SM BKN050
     FM220200 33007KT P6SM BKN200=



000
FTUS44 KOHX 210500
TAFBNA
TAF
KBNA 210520Z 2106/2206 35005KT P6SM OVC011
     FM211100 34009KT P6SM OVC003
     FM211500 35007KT P6SM BKN015
     FM211800 34006KT P6SM BKN025
     FM212200 34010KT P6SM BKN050
     FM220300 35005KT P6SM SCT100=



000
FTUS44 KOHX 210500
TAFCKV
TAF
KCKV 210520Z 2106/2206 34005KT 2SM BR OVC005
     FM211000 33009KT 1SM BR OVC003
     FM211500 35007KT P6SM OVC007
     FM211700 34008KT P6SM BKN015
     FM212100 33009KT P6SM BKN050
     FM220200 35004KT P6SM SKC=



000
FTUS44 KOHX 210500
TAFCKV
TAF
KCKV 210520Z 2106/2206 34005KT 2SM BR OVC005
     FM211000 33009KT 1SM BR OVC003
     FM211500 35007KT P6SM OVC007
     FM211700 34008KT P6SM BKN015
     FM212100 33009KT P6SM BKN050
     FM220200 35004KT P6SM SKC=



000
FTUS44 KOHX 210500
TAFCSV
TAF
KCSV 210520Z 2106/2206 27003KT 5SM -SHRA SCT040 BKN060 OVC090
     FM210700 29003KT 4SM BR OVC015
     FM211100 32006KT 4SM BR OVC007
     FM211500 33008KT P6SM BKN015
     FM212300 31008KT P6SM BKN050
     FM220200 33007KT P6SM BKN200=



000
FTUS44 KOHX 210500
TAFBNA
TAF
KBNA 210520Z 2106/2206 35005KT P6SM OVC011
     FM211100 34009KT P6SM OVC003
     FM211500 35007KT P6SM BKN015
     FM211800 34006KT P6SM BKN025
     FM212200 34010KT P6SM BKN050
     FM220300 35005KT P6SM SCT100=



000
FTUS44 KOHX 210400 AAC
TAFCSV
TAF AMD
KCSV 210448Z 2105/2124 33005KT 5SM -SHRA SCT040 OVC060
     FM210800 29003KT 4SM BR OVC015
     FM211300 33008KT 6SM BR OVC007
     FM211500 31008KT P6SM BKN015=



000
FTUS44 KOHX 210400 AAC
TAFCSV
TAF AMD
KCSV 210448Z 2105/2124 33005KT 5SM -SHRA SCT040 OVC060
     FM210800 29003KT 4SM BR OVC015
     FM211300 33008KT 6SM BR OVC007
     FM211500 31008KT P6SM BKN015=



000
FTUS44 KOHX 210400 AAD
TAFCKV
TAF AMD
KCKV 210436Z 2105/2124 34012KT 3SM BR OVC004
     FM210600 33005KT 4SM BR OVC005
     FM211000 33009KT P6SM OVC003
     FM211400 34008KT P6SM BKN007=



000
FTUS44 KOHX 210400 AAB
TAFCSV
TAF AMD
KCSV 210436Z 2105/2124 29004KT 2SM SHRA BKN040 OVC050
     FM210800 29003KT 4SM BR OVC015
     FM211300 33008KT 6SM BR OVC007
     FM211500 31008KT P6SM BKN015=



000
FTUS44 KOHX 210400 AAA
TAFCSV
TAF AMD
KCSV 210405Z 2104/2124 27003KT 5SM -SHRA BKN060 OVC090
     FM210800 29003KT 4SM BR OVC015
     FM211300 33008KT 6SM BR OVC007
     FM211500 31008KT P6SM BKN015=



000
FTUS44 KOHX 210300 AAC
TAFCKV
TAF AMD
KCKV 210356Z 2104/2124 34009KT 2SM BR OVC005
     FM210600 33005KT 4SM BR OVC005
     FM211000 33009KT P6SM OVC003
     FM211400 34008KT P6SM BKN007=



000
FTUS44 KOHX 210300 AAC
TAFCKV
TAF AMD
KCKV 210356Z 2104/2124 34009KT 2SM BR OVC005
     FM210600 33005KT 4SM BR OVC005
     FM211000 33009KT P6SM OVC003
     FM211400 34008KT P6SM BKN007=



000
FTUS44 KOHX 210300 AAD
TAFBNA
TAF AMD
KBNA 210356Z 2104/2124 32008KT P6SM SCT010 OVC030
     FM210500 35005KT P6SM OVC007
     FM211100 34009KT P6SM OVC003
     FM211500 35007KT P6SM BKN015=



    US Dept of Commerce
    National Oceanic and Atmospheric Administration
    National Weather Service
    1325 East West Highway
    Silver Spring, MD 20910
    Page Author: NWS Internet Services Team
Disclaimer
Information Quality
Credits
Glossary
Privacy Policy
Freedom of Information Act (FOIA)
About Us
Career Opportunities